Time;durP1;ratioP1;P1;durP2;ratioP2;P2;SDS_P1;SDS_P2;PMS_P1;PMS_P2;Temp;Humidity;BMP_temperature;BMP_pressure;BME280_temperature;BME280_humidity;BME280_pressure;Samples;Min_cycle;Max_cycle;Signal;HPM_P1;HPM_P2
2024/01/31 00:01:42;;;;;;;48.28;23.38;;;;;;;-3.04;89.24;101458.19;5092438;28;20520;-69
2024/01/31 00:04:08;;;;;;;46.55;22.30;;;;;;;-3.00;89.50;101469.59;5092556;28;20024;-68
2024/01/31 00:06:33;;;;;;;47.47;22.48;;;;;;;-2.86;89.95;101471.41;5108801;28;20032;-69
2024/01/31 00:09:00;;;;;;;42.28;21.27;;;;;;;-3.06;89.18;101464.91;5093787;28;20036;-69
2024/01/31 00:11:28;;;;;;;43.92;22.10;;;;;;;-3.07;88.69;101466.78;5097366;28;20020;-69
2024/01/31 00:13:55;;;;;;;48.63;22.88;;;;;;;-3.47;89.22;101456.25;5108148;28;20012;-69
2024/01/31 00:16:20;;;;;;;41.70;21.50;;;;;;;-3.47;89.93;101463.63;5098366;28;20456;-68
2024/01/31 00:18:46;;;;;;;43.42;20.80;;;;;;;-3.43;90.07;101460.31;5113001;28;20119;-68
2024/01/31 00:21:12;;;;;;;45.13;19.55;;;;;;;-3.39;89.87;101460.75;5114014;28;20103;-68
2024/01/31 00:23:37;;;;;;;46.70;20.23;;;;;;;-3.36;89.70;101457.66;5113565;28;20040;-68
2024/01/31 00:26:03;;;;;;;34.13;18.52;;;;;;;-3.29;89.83;101455.81;5113050;28;20027;-69
2024/01/31 00:28:28;;;;;;;44.83;22.17;;;;;;;-3.10;89.21;101453.50;5112967;28;20015;-69
2024/01/31 00:30:54;;;;;;;44.70;22.42;;;;;;;-2.94;88.83;101455.13;5095617;28;20031;-69
2024/01/31 00:33:19;;;;;;;41.97;20.80;;;;;;;-3.06;87.74;101453.97;5093334;28;20404;-68
2024/01/31 00:35:45;;;;;;;38.38;19.42;;;;;;;-3.42;88.71;101452.94;5099860;28;20028;-69
2024/01/31 00:38:10;;;;;;;44.38;22.55;;;;;;;-3.56;89.69;101463.72;5093018;28;20041;-69
2024/01/31 00:40:36;;;;;;;42.58;20.13;;;;;;;-3.28;90.04;101464.91;5091909;28;20086;-68
2024/01/31 00:43:01;;;;;;;36.58;19.25;;;;;;;-3.33;89.20;101462.72;5112351;28;20027;-68
2024/01/31 00:45:28;;;;;;;39.85;19.50;;;;;;;-3.35;88.48;101462.09;5103511;28;20054;-68
2024/01/31 00:47:53;;;;;;;35.83;19.40;;;;;;;-3.72;89.98;101455.75;5091722;28;20114;-69
2024/01/31 00:50:19;;;;;;;42.28;20.52;;;;;;;-3.72;90.34;101458.50;5092968;28;20111;-69
2024/01/31 00:52:44;;;;;;;39.38;20.63;;;;;;;-3.98;91.89;101448.91;5093275;28;20008;-68
2024/01/31 00:55:10;;;;;;;42.40;22.23;;;;;;;-3.91;92.94;101452.56;5098207;28;20442;-68
2024/01/31 00:57:36;;;;;;;50.50;21.42;;;;;;;-3.81;92.78;101455.84;5093000;28;20107;-69
2024/01/31 01:00:08;;;;;;;44.53;23.38;;;;;;;-3.73;91.75;101454.06;5091596;28;20400;-69
2024/01/31 01:02:36;;;;;;;43.28;23.67;;;;;;;-3.49;91.31;101460.25;5092086;28;20028;-68
2024/01/31 01:05:02;;;;;;;49.33;22.95;;;;;;;-3.52;90.78;101450.53;5091217;28;20020;-69
2024/01/31 01:07:27;;;;;;;52.53;25.25;;;;;;;-3.52;90.68;101454.09;5091345;28;20173;-69
2024/01/31 01:09:53;;;;;;;45.05;22.35;;;;;;;-3.83;92.05;101449.72;5094499;28;20532;-69
2024/01/31 01:12:18;;;;;;;42.58;21.60;;;;;;;-3.83;91.89;101447.00;5090972;28;20020;-69
2024/01/31 01:14:43;;;;;;;49.42;23.02;;;;;;;-3.69;91.92;101452.63;5093416;28;20035;-69
2024/01/31 01:17:09;;;;;;;46.78;21.83;;;;;;;-3.50;91.24;101451.16;5100249;28;20027;-69
2024/01/31 01:19:34;;;;;;;44.88;22.40;;;;;;;-3.50;90.53;101434.75;5107025;28;20043;-68
2024/01/31 01:22:00;;;;;;;45.10;22.73;;;;;;;-3.82;91.89;101434.16;5091857;28;20031;-68
2024/01/31 01:24:26;;;;;;;44.90;22.48;;;;;;;-4.09;93.98;101434.66;5111444;28;20055;-69
2024/01/31 01:26:51;;;;;;;44.58;21.20;;;;;;;-4.12;93.99;101442.41;5103190;28;20024;-68
2024/01/31 01:29:17;;;;;;;38.15;19.80;;;;;;;-4.09;94.55;101440.13;5090768;28;20471;-69
2024/01/31 01:31:42;;;;;;;38.95;19.83;;;;;;;-4.10;94.02;101435.72;5092298;28;20511;-69
2024/01/31 01:34:10;;;;;;;36.83;19.35;;;;;;;-4.07;94.41;101425.44;5090685;28;20388;-69
2024/01/31 01:36:36;;;;;;;46.33;22.52;;;;;;;-4.20;94.72;101424.22;5096921;28;20119;-69
2024/01/31 01:39:03;;;;;;;47.97;22.50;;;;;;;-4.09;95.47;101428.34;5098108;28;20424;-68
2024/01/31 01:41:28;;;;;;;39.10;20.90;;;;;;;-4.19;94.30;101425.91;5091836;28;20043;-69
2024/01/31 01:43:54;;;;;;;43.40;21.30;;;;;;;-3.77;94.62;101428.13;5093490;28;20024;-69
2024/01/31 01:46:21;;;;;;;41.58;19.92;;;;;;;-3.41;93.99;101428.13;5109116;28;20129;-69
2024/01/31 01:48:47;;;;;;;37.80;17.52;;;;;;;-3.23;92.63;101418.59;5111646;28;20036;-69
2024/01/31 01:51:23;;;;;;;31.23;17.15;;;;;;;-3.30;89.82;101417.72;5097982;28;20032;-69
2024/01/31 01:53:50;;;;;;;39.20;17.88;;;;;;;-3.75;89.25;101421.41;5090462;28;20019;-68
2024/01/31 01:56:17;;;;;;;34.30;15.30;;;;;;;-4.14;91.45;101420.69;5091716;28;20476;-68
2024/01/31 01:58:43;;;;;;;28.42;14.77;;;;;;;-4.27;91.25;101417.78;5091343;28;20040;-68
2024/01/31 02:01:11;;;;;;;27.48;14.38;;;;;;;-4.47;93.29;101422.97;5090311;28;20039;-68
2024/01/31 02:03:36;;;;;;;29.40;14.60;;;;;;;-4.38;93.34;101417.22;5090918;28;20507;-68
2024/01/31 02:06:02;;;;;;;41.88;17.65;;;;;;;-4.17;92.31;101412.88;5109508;28;20027;-68
2024/01/31 02:08:29;;;;;;;33.53;15.73;;;;;;;-4.15;92.16;101419.00;5111298;28;20032;-69
2024/01/31 02:10:55;;;;;;;33.83;17.05;;;;;;;-4.21;93.30;101416.19;5106444;28;20069;-68
2024/01/31 02:13:21;;;;;;;49.00;21.73;;;;;;;-4.16;92.70;101414.59;5091573;28;20032;-68
2024/01/31 02:15:53;;;;;;;39.90;18.70;;;;;;;-4.48;93.19;101416.63;5090822;28;20105;-68
2024/01/31 02:18:19;;;;;;;37.75;19.40;;;;;;;-4.48;93.98;101408.44;5089487;28;20097;-67
2024/01/31 02:20:45;;;;;;;41.25;18.90;;;;;;;-4.55;94.11;101413.81;5089307;28;20027;-67
2024/01/31 02:23:10;;;;;;;29.58;16.23;;;;;;;-4.61;94.39;101410.97;5090295;28;20054;-67
2024/01/31 02:25:36;;;;;;;37.72;18.95;;;;;;;-4.57;93.83;101404.13;5089109;28;20028;-67
2024/01/31 02:28:01;;;;;;;37.22;17.33;;;;;;;-4.47;94.16;101407.41;5104360;28;20051;-67
2024/01/31 02:30:27;;;;;;;30.65;17.52;;;;;;;-4.13;94.10;101406.00;5089047;28;20488;-68
2024/01/31 02:32:54;;;;;;;39.33;20.45;;;;;;;-3.89;92.90;101408.63;5089040;28;20024;-68
2024/01/31 02:35:19;;;;;;;38.85;19.50;;;;;;;-3.71;92.59;101410.94;5101645;28;20023;-67
2024/01/31 02:37:45;;;;;;;40.00;21.63;;;;;;;-3.72;90.87;101410.09;5108380;28;20058;-68
2024/01/31 02:40:11;;;;;;;33.38;17.42;;;;;;;-4.10;89.38;101404.78;5090670;28;20032;-68
2024/01/31 02:42:36;;;;;;;31.38;16.33;;;;;;;-4.13;90.16;101396.97;5103610;28;20411;-68
2024/01/31 02:45:04;;;;;;;29.73;15.38;;;;;;;-3.95;90.21;101405.59;5100657;28;20028;-68
2024/01/31 02:47:30;;;;;;;28.92;15.10;;;;;;;-3.78;90.89;101399.94;5110595;28;20111;-67
2024/01/31 02:49:55;;;;;;;33.00;14.57;;;;;;;-4.16;88.91;101392.72;5109144;28;20023;-67
2024/01/31 02:52:21;;;;;;;40.22;14.40;;;;;;;-4.55;91.13;101399.31;5109870;28;20024;-68
2024/01/31 02:54:50;;;;;;;32.58;16.17;;;;;;;-4.68;91.62;101400.81;5108819;28;20027;-68
2024/01/31 02:57:16;;;;;;;27.00;14.70;;;;;;;-4.79;92.84;101398.53;5107942;28;20088;-67
2024/01/31 02:59:41;;;;;;;33.17;17.27;;;;;;;-5.02;93.25;101399.41;5092378;28;20058;-67
2024/01/31 03:02:07;;;;;;;34.83;17.13;;;;;;;-5.22;94.37;101399.91;5089632;28;20488;-68
2024/01/31 03:04:32;;;;;;;32.10;15.98;;;;;;;-4.94;93.45;101393.91;5103235;28;20416;-67
2024/01/31 03:06:58;;;;;;;33.92;16.90;;;;;;;-5.07;93.16;101396.38;5089788;28;20020;-68
2024/01/31 03:09:23;;;;;;;33.20;16.95;;;;;;;-4.96;93.58;101403.28;5109961;28;20131;-68
2024/01/31 03:11:49;;;;;;;37.90;17.00;;;;;;;-5.09;94.09;101406.63;5108954;28;20023;-68
2024/01/31 03:14:14;;;;;;;31.83;15.30;;;;;;;-5.15;95.08;101410.94;5095779;28;20492;-67
2024/01/31 03:16:39;;;;;;;30.08;16.63;;;;;;;-4.75;95.20;101397.13;5089576;28;20031;-67
2024/01/31 03:19:06;;;;;;;39.10;19.23;;;;;;;-4.67;94.27;101401.66;5089802;28;20020;-67
2024/01/31 03:21:33;;;;;;;37.38;18.67;;;;;;;-4.89;92.80;101397.94;5089546;28;20032;-66
2024/01/31 03:23:58;;;;;;;36.30;17.05;;;;;;;-4.75;93.59;101399.84;5088360;28;20051;-67
2024/01/31 03:26:24;;;;;;;36.45;18.90;;;;;;;-4.37;94.24;101397.06;5108559;28;20023;-67
2024/01/31 03:28:49;;;;;;;37.47;17.98;;;;;;;-4.00;92.61;101407.22;5098088;28;20038;-68
2024/01/31 03:31:15;;;;;;;51.83;26.92;;;;;;;-3.86;91.88;101410.97;5108547;28;20023;-69
2024/01/31 03:33:40;;;;;;;49.60;22.40;;;;;;;-3.83;91.74;101400.50;5110114;28;20565;-69
2024/01/31 03:36:09;;;;;;;40.05;21.20;;;;;;;-3.62;90.41;101407.06;5109389;28;20131;-69
2024/01/31 03:38:35;;;;;;;41.73;19.27;;;;;;;-3.57;89.82;101411.94;5105376;28;20035;-68
2024/01/31 03:41:04;;;;;;;48.90;19.02;;;;;;;-3.44;88.93;101416.72;5088304;28;20426;-68
2024/01/31 03:43:29;;;;;;;47.38;19.40;;;;;;;-3.34;87.82;101409.03;5089664;28;20020;-68
2024/01/31 03:45:55;;;;;;;45.42;20.17;;;;;;;-3.33;87.06;101399.78;5088537;28;20556;-68
2024/01/31 03:48:20;;;;;;;53.63;20.85;;;;;;;-3.23;86.51;101401.34;5089555;28;20016;-69
2024/01/31 03:50:46;;;;;;;51.17;21.77;;;;;;;-3.21;86.72;101405.56;5093569;28;20024;-68
2024/01/31 03:53:11;;;;;;;41.83;20.23;;;;;;;-3.34;86.93;101398.09;5091927;28;20038;-69
2024/01/31 03:55:36;;;;;;;55.03;22.58;;;;;;;-3.32;86.68;101398.72;5105796;28;20028;-68
2024/01/31 03:58:03;;;;;;;46.90;21.48;;;;;;;-3.20;87.07;101395.47;5111915;28;20114;-68
2024/01/31 04:00:29;;;;;;;53.58;24.08;;;;;;;-3.17;85.84;101389.59;5099752;28;20027;-69
2024/01/31 04:02:56;;;;;;;57.63;24.65;;;;;;;-3.35;86.18;101393.66;5107884;28;20023;-68
2024/01/31 04:05:22;;;;;;;51.53;24.65;;;;;;;-3.42;86.54;101399.06;5093190;28;20024;-68
2024/01/31 04:07:47;;;;;;;44.80;21.48;;;;;;;-3.54;87.56;101395.16;5093435;28;20031;-68
2024/01/31 04:10:13;;;;;;;48.63;23.98;;;;;;;-3.57;87.53;101388.16;5093001;28;20024;-68
2024/01/31 04:12:38;;;;;;;48.13;23.58;;;;;;;-3.51;86.87;101394.75;5091722;28;20076;-67
2024/01/31 04:15:04;;;;;;;59.00;27.50;;;;;;;-3.47;86.21;101384.28;5095707;28;20020;-67
2024/01/31 04:17:30;;;;;;;65.93;28.13;;;;;;;-3.34;85.61;101395.34;5092853;28;20020;-67
2024/01/31 04:19:55;;;;;;;70.13;28.27;;;;;;;-3.32;85.61;101396.00;5091145;28;20027;-67
2024/01/31 04:22:21;;;;;;;59.15;26.00;;;;;;;-3.53;85.70;101397.66;5091411;28;20112;-67
2024/01/31 04:24:47;;;;;;;59.83;24.92;;;;;;;-4.41;86.68;101408.53;5092446;28;20040;-68
2024/01/31 04:27:12;;;;;;;47.90;23.38;;;;;;;-4.61;89.65;101406.38;5096428;28;20027;-67
2024/01/31 04:29:41;;;;;;;36.58;18.98;;;;;;;-4.76;89.55;101398.16;5095690;28;20032;-68
2024/01/31 04:32:07;;;;;;;37.22;18.00;;;;;;;-4.83;90.39;101402.66;5092476;28;20027;-67
2024/01/31 04:34:34;;;;;;;31.52;15.70;;;;;;;-4.57;89.57;101402.22;5091634;28;20027;-68
2024/01/31 04:37:01;;;;;;;34.95;18.08;;;;;;;-4.28;89.31;101406.03;5099944;28;20503;-68
2024/01/31 04:39:26;;;;;;;36.90;19.85;;;;;;;-4.21;89.47;101406.13;5097605;28;20041;-69
2024/01/31 04:41:51;;;;;;;35.65;19.95;;;;;;;-4.21;88.10;101408.84;5092139;28;20439;-68
2024/01/31 04:44:17;;;;;;;45.90;24.60;;;;;;;-4.39;87.92;101404.59;5092567;28;20016;-68
2024/01/31 04:46:42;;;;;;;41.20;22.15;;;;;;;-4.38;88.09;101400.81;5092346;28;20093;-69
2024/01/31 04:49:08;;;;;;;40.20;23.88;;;;;;;-4.46;87.32;101411.88;5092330;28;20039;-69
2024/01/31 04:51:33;;;;;;;36.83;19.58;;;;;;;-4.33;87.97;101407.63;5090430;28;20499;-69
2024/01/31 04:53:59;;;;;;;31.67;17.48;;;;;;;-4.19;89.34;101404.03;5109282;28;20024;-69
2024/01/31 04:56:24;;;;;;;34.45;16.45;;;;;;;-4.43;87.39;101402.41;5092582;28;20058;-69
2024/01/31 04:58:50;;;;;;;54.00;25.98;;;;;;;-4.18;87.71;101411.19;5090617;28;20028;-69
2024/01/31 05:01:16;;;;;;;89.63;41.03;;;;;;;-4.39;86.42;101406.50;5089745;28;20023;-69
2024/01/31 05:03:41;;;;;;;73.07;36.45;;;;;;;-4.36;86.51;101414.31;5092042;28;20020;-69
2024/01/31 05:06:07;;;;;;;42.45;23.13;;;;;;;-4.41;86.85;101417.59;5092049;28;20036;-69
2024/01/31 05:08:32;;;;;;;35.63;18.90;;;;;;;-4.25;86.26;101404.78;5091986;28;20027;-69
2024/01/31 05:10:58;;;;;;;53.60;28.42;;;;;;;-4.10;86.86;101408.38;5092238;28;20099;-69
2024/01/31 05:13:23;;;;;;;50.50;25.02;;;;;;;-4.21;87.03;101406.13;5091799;28;20040;-69
2024/01/31 05:15:50;;;;;;;46.33;21.48;;;;;;;-4.55;85.83;101407.50;5090929;28;20028;-69
2024/01/31 05:18:16;;;;;;;45.35;22.23;;;;;;;-4.53;86.47;101400.81;5091523;28;20039;-69
2024/01/31 05:20:42;;;;;;;38.58;17.48;;;;;;;-4.38;86.14;101403.56;5107226;28;20028;-69
2024/01/31 05:23:07;;;;;;;47.92;19.67;;;;;;;-4.27;85.62;101402.25;5089394;28;20480;-68
2024/01/31 05:25:33;;;;;;;49.42;21.85;;;;;;;-4.18;85.93;101411.19;5105900;28;20058;-69
2024/01/31 05:27:58;;;;;;;58.95;31.55;;;;;;;-4.39;85.71;101404.59;5108874;28;20026;-69
2024/01/31 05:30:24;;;;;;;65.47;36.30;;;;;;;-4.22;85.67;101409.88;5111885;27;20484;-69
2024/01/31 05:32:49;;;;;;;65.15;30.90;;;;;;;-4.24;86.63;101406.47;5097667;28;20031;-68
2024/01/31 05:35:16;;;;;;;50.92;27.90;;;;;;;-4.02;85.81;101409.28;5091454;28;20488;-69
2024/01/31 05:37:42;;;;;;;49.22;24.38;;;;;;;-4.02;84.93;101406.56;5091774;28;20075;-69
2024/01/31 05:40:09;;;;;;;48.58;25.60;;;;;;;-4.54;85.48;101403.75;5110794;28;20028;-68
2024/01/31 05:42:34;;;;;;;59.80;30.70;;;;;;;-4.67;87.28;101397.03;5110058;28;20089;-69
2024/01/31 05:45:00;;;;;;;57.08;29.58;;;;;;;-4.73;87.67;101403.25;5102116;28;20036;-68
2024/01/31 05:47:25;;;;;;;59.80;30.65;;;;;;;-4.40;88.01;101404.81;5101284;28;20032;-69
2024/01/31 05:49:51;;;;;;;56.58;30.23;;;;;;;-4.24;87.39;101403.75;5103194;28;20035;-68
2024/01/31 05:52:16;;;;;;;49.53;25.95;;;;;;;-4.40;86.30;101411.09;5103449;28;20032;-69
2024/01/31 05:54:42;;;;;;;56.80;29.65;;;;;;;-4.87;87.82;101414.97;5106282;28;20034;-69
2024/01/31 05:57:07;;;;;;;63.47;27.58;;;;;;;-5.09;89.56;101420.28;5097654;28;20111;-69
2024/01/31 05:59:33;;;;;;;59.78;26.77;;;;;;;-5.15;90.42;101418.31;5089093;28;20519;-69
2024/01/31 06:01:59;;;;;;;77.15;28.05;;;;;;;-5.32;91.89;101423.03;5090261;28;20032;-68
2024/01/31 06:04:25;;;;;;;61.47;28.45;;;;;;;-5.26;91.45;101409.50;5089337;28;20024;-69
2024/01/31 06:06:50;;;;;;;60.70;25.27;;;;;;;-5.17;90.91;101412.19;5108226;28;20030;-70
2024/01/31 06:09:15;;;;;;;76.07;31.30;;;;;;;-5.32;91.12;101420.31;5110739;28;20023;-68
2024/01/31 06:11:41;;;;;;;70.25;31.17;;;;;;;-5.36;92.56;101419.81;5102563;28;20028;-67
2024/01/31 06:14:06;;;;;;;90.35;36.72;;;;;;;-5.43;92.25;101421.56;5103562;28;20028;-68
2024/01/31 06:16:33;;;;;;;86.53;34.00;;;;;;;-5.44;92.57;101422.59;5086952;28;20054;-69
2024/01/31 06:19:00;;;;;;;66.82;32.15;;;;;;;-5.43;92.45;101418.81;5099715;28;20026;-68
2024/01/31 06:21:26;;;;;;;63.38;30.60;;;;;;;-5.44;92.50;101417.13;5092291;28;20024;-69
2024/01/31 06:23:51;;;;;;;52.22;27.33;;;;;;;-5.10;91.69;101426.78;5097721;28;20507;-67
2024/01/31 06:26:17;;;;;;;53.92;23.83;;;;;;;-5.17;92.61;101423.94;5093502;28;20509;-64
2024/01/31 06:28:42;;;;;;;40.97;19.95;;;;;;;-5.35;93.26;101426.97;5099843;28;20093;-65
2024/01/31 06:31:16;;;;;;;39.88;23.42;;;;;;;-5.54;94.76;101420.97;5102255;28;20031;-67
2024/01/31 06:33:42;;;;;;;47.95;21.75;;;;;;;-5.60;96.78;101424.41;5101611;28;20407;-68
2024/01/31 06:36:09;;;;;;;37.33;19.75;;;;;;;-5.21;95.96;101422.59;5104441;28;20024;-72
2024/01/31 06:38:35;;;;;;;49.95;26.60;;;;;;;-5.12;95.72;101415.19;5100817;28;20560;-70
2024/01/31 06:41:00;;;;;;;33.53;18.30;;;;;;;-5.18;97.02;101424.97;5102586;28;20031;-72
2024/01/31 06:43:26;;;;;;;33.92;16.52;;;;;;;-5.12;97.65;101420.66;5103566;28;20034;-68
2024/01/31 06:45:52;;;;;;;34.67;16.02;;;;;;;-4.89;97.35;101428.81;5096357;28;20123;-69
2024/01/31 06:48:17;;;;;;;50.70;24.90;;;;;;;-4.40;97.04;101440.31;5105537;28;20039;-70
2024/01/31 06:50:43;;;;;;;79.18;38.03;;;;;;;-4.42;95.54;101432.31;5102863;28;20495;-69
2024/01/31 06:53:08;;;;;;;62.47;31.33;;;;;;;-4.41;96.12;101436.72;5099505;28;20028;-67
2024/01/31 06:55:34;;;;;;;55.08;23.77;;;;;;;-4.31;96.27;101433.72;5097668;28;20020;-67
2024/01/31 06:57:59;;;;;;;50.97;22.23;;;;;;;-4.19;94.85;101428.63;5094077;28;20028;-70
2024/01/31 07:00:25;;;;;;;47.05;20.42;;;;;;;-4.23;95.65;101427.28;5102668;28;20027;-70
2024/01/31 07:02:52;;;;;;;42.80;18.10;;;;;;;-4.18;95.14;101429.47;5097384;28;20023;-69
2024/01/31 07:05:19;;;;;;;35.45;17.50;;;;;;;-4.09;95.01;101433.81;5102867;28;20031;-69
2024/01/31 07:07:46;;;;;;;31.70;15.07;;;;;;;-3.92;92.81;101422.66;5099700;28;20035;-69
2024/01/31 07:10:11;;;;;;;37.58;15.20;;;;;;;-3.85;93.21;101426.34;5100489;28;20028;-68
2024/01/31 07:12:37;;;;;;;36.80;16.67;;;;;;;-3.70;93.15;101429.06;5099975;28;20157;-69
2024/01/31 07:15:06;;;;;;;42.88;23.08;;;;;;;-3.85;93.93;101421.72;5105344;28;20507;-69
2024/01/31 07:17:31;;;;;;;35.90;19.17;;;;;;;-3.65;94.98;101434.78;5086988;28;20496;-69
2024/01/31 07:19:57;;;;;;;36.40;19.38;;;;;;;-3.46;94.24;101421.53;5097278;28;20445;-67
2024/01/31 07:22:23;;;;;;;41.25;21.17;;;;;;;-3.30;92.90;101420.44;5096219;28;20146;-69
2024/01/31 07:24:48;;;;;;;40.90;21.45;;;;;;;-3.13;91.71;101421.03;5100227;28;20512;-65
2024/01/31 07:27:13;;;;;;;48.70;24.25;;;;;;;-3.01;90.89;101421.34;5107698;28;20088;-68
2024/01/31 07:29:39;;;;;;;50.10;24.23;;;;;;;-2.92;89.50;101411.09;5104290;28;20023;-70
2024/01/31 07:32:05;;;;;;;46.45;24.90;;;;;;;-2.99;90.31;101413.78;5097400;28;20027;-70
2024/01/31 07:34:30;;;;;;;57.45;25.75;;;;;;;-2.96;91.12;101405.16;5102061;28;20138;-71
2024/01/31 07:36:56;;;;;;;39.70;21.20;;;;;;;-2.62;90.51;101408.19;5103377;28;20023;-71
2024/01/31 07:39:21;;;;;;;38.33;21.65;;;;;;;-2.69;89.65;101403.50;5099492;28;20028;-71
2024/01/31 07:41:47;;;;;;;41.65;20.20;;;;;;;-2.45;87.29;101411.47;5106675;28;20412;-71
2024/01/31 07:44:12;;;;;;;42.28;20.33;;;;;;;-2.34;86.94;101396.34;5104868;28;20481;-71
2024/01/31 07:46:39;;;;;;;53.88;21.42;;;;;;;-2.45;86.44;101401.34;5100901;28;20012;-73
2024/01/31 07:49:06;;;;;;;43.47;22.05;;;;;;;-2.60;87.42;101395.13;5098520;28;20027;-71
2024/01/31 07:51:31;;;;;;;43.95;22.13;;;;;;;-2.37;87.14;101392.09;5106779;27;20032;-72
2024/01/31 07:53:57;;;;;;;67.53;23.40;;;;;;;-2.35;87.13;101384.56;5108899;28;20020;-73
2024/01/31 07:56:22;;;;;;;36.10;18.88;;;;;;;-1.96;87.80;101384.94;5096058;28;20027;-72
2024/01/31 07:58:48;;;;;;;36.25;18.95;;;;;;;-1.76;84.23;101390.50;5105064;28;20031;-71
2024/01/31 08:01:13;;;;;;;34.17;17.40;;;;;;;-1.77;85.54;101383.31;5097524;28;20097;-71
2024/01/31 08:03:41;;;;;;;33.45;17.95;;;;;;;-1.63;84.43;101380.63;5106319;28;20039;-73
2024/01/31 08:06:07;;;;;;;44.05;19.33;;;;;;;-1.65;84.96;101385.47;5102436;28;20028;-72
2024/01/31 08:08:33;;;;;;;33.00;18.58;;;;;;;-1.77;83.79;101388.81;5100624;28;20047;-73
2024/01/31 08:10:59;;;;;;;39.45;19.20;;;;;;;-1.60;85.12;101382.97;5108780;28;20015;-73
2024/01/31 08:13:25;;;;;;;42.47;20.42;;;;;;;-1.64;84.54;101382.53;5107543;28;20444;-73
2024/01/31 08:15:51;;;;;;;26.38;15.60;;;;;;;-1.54;82.25;101386.78;5109988;28;20031;-73
2024/01/31 08:18:17;;;;;;;31.20;16.15;;;;;;;-1.41;81.58;101384.91;5111455;28;20476;-73
2024/01/31 08:20:42;;;;;;;31.05;15.85;;;;;;;-1.15;80.50;101377.78;5109782;28;20098;-74
2024/01/31 08:23:08;;;;;;;36.88;17.70;;;;;;;-0.71;80.66;101367.19;5106289;28;20044;-73
2024/01/31 08:25:33;;;;;;;32.20;16.30;;;;;;;-0.44;77.68;101366.28;5104568;28;20495;-71
2024/01/31 08:27:59;;;;;;;27.38;14.52;;;;;;;-0.11;76.09;101367.28;5107828;28;20455;-71
2024/01/31 08:30:26;;;;;;;32.03;15.45;;;;;;;0.27;74.73;101366.47;5097478;28;20127;-71
2024/01/31 08:32:51;;;;;;;27.42;13.68;;;;;;;0.76;73.03;101363.22;5099854;28;20134;-71
2024/01/31 08:35:17;;;;;;;31.65;14.55;;;;;;;0.86;70.30;101365.47;5104251;28;20035;-72
2024/01/31 08:37:42;;;;;;;20.92;11.35;;;;;;;0.86;67.97;101358.06;5098779;28;20081;-71
2024/01/31 08:40:10;;;;;;;27.45;14.23;;;;;;;1.16;66.42;101348.28;5101062;28;20027;-71
2024/01/31 08:42:38;;;;;;;38.30;16.15;;;;;;;1.14;66.68;101351.25;5099454;28;20062;-72
2024/01/31 08:45:05;;;;;;;39.97;16.90;;;;;;;1.20;66.46;101350.34;5106276;28;20035;-72
2024/01/31 08:47:31;;;;;;;33.80;15.07;;;;;;;1.09;68.26;101342.84;5103860;28;20115;-72
2024/01/31 08:49:56;;;;;;;27.08;13.32;;;;;;;1.56;67.79;101347.03;5103028;28;20119;-72
2024/01/31 08:52:22;;;;;;;28.25;13.65;;;;;;;1.51;66.97;101347.75;5102143;28;20016;-71
2024/01/31 08:54:47;;;;;;;26.13;15.00;;;;;;;1.61;65.72;101352.72;5103843;28;20027;-71
2024/01/31 08:57:13;;;;;;;32.58;14.00;;;;;;;1.70;66.66;101336.69;5106396;28;20027;-72
2024/01/31 08:59:38;;;;;;;33.15;18.65;;;;;;;2.09;64.55;101338.13;5104332;28;20072;-72
2024/01/31 09:02:04;;;;;;;26.58;13.43;;;;;;;2.24;63.42;101331.34;5109653;28;20031;-72
2024/01/31 09:04:29;;;;;;;17.15;10.35;;;;;;;2.02;60.86;101331.84;5105348;28;20064;-72
2024/01/31 09:06:55;;;;;;;22.60;10.93;;;;;;;2.56;59.81;101330.25;5100729;28;20429;-72
2024/01/31 09:09:20;;;;;;;24.05;11.68;;;;;;;2.78;59.68;101320.34;5109834;28;20051;-70
2024/01/31 09:11:46;;;;;;;23.45;12.75;;;;;;;2.65;59.11;101320.56;5101387;28;20081;-71
2024/01/31 09:14:12;;;;;;;46.17;12.27;;;;;;;2.60;58.44;101312.97;5106971;28;20016;-72
2024/01/31 09:16:38;;;;;;;30.25;15.20;;;;;;;2.84;57.07;101313.03;5099503;28;20067;-73
2024/01/31 09:19:03;;;;;;;23.25;12.27;;;;;;;2.31;56.36;101304.50;5107859;28;20062;-74
2024/01/31 09:21:29;;;;;;;30.95;15.98;;;;;;;2.49;56.81;101297.22;5109432;28;20567;-74
2024/01/31 09:23:55;;;;;;;27.35;12.60;;;;;;;2.83;56.11;101294.75;5111242;28;20415;-80
2024/01/31 09:26:21;;;;;;;65.93;26.55;;;;;;;2.63;57.58;101289.56;5110940;28;20015;-73
2024/01/31 09:28:46;;;;;;;22.80;11.95;;;;;;;2.34;56.04;101279.16;5110704;28;20103;-73
2024/01/31 09:31:23;;;;;;;17.23;10.75;;;;;;;2.30;55.95;101274.34;5104480;28;20044;-74
2024/01/31 09:33:53;;;;;;;23.17;12.52;;;;;;;2.08;56.60;101278.47;5105202;28;20016;-75
2024/01/31 09:36:19;;;;;;;23.15;13.45;;;;;;;2.32;56.37;101262.00;5103685;28;20019;-75
2024/01/31 09:38:47;;;;;;;25.48;13.48;;;;;;;2.37;56.61;101256.59;5096597;28;20024;-74
2024/01/31 09:41:12;;;;;;;20.85;12.85;;;;;;;2.29;56.73;101248.63;5097565;28;20024;-74
2024/01/31 09:43:38;;;;;;;27.15;14.45;;;;;;;2.57;57.45;101243.53;5103057;28;20127;-74
2024/01/31 09:46:06;;;;;;;22.20;11.00;;;;;;;3.10;54.70;101239.00;5099316;28;20039;-74
2024/01/31 09:48:33;;;;;;;20.48;11.55;;;;;;;3.20;53.39;101241.19;5096078;28;20028;-74
2024/01/31 09:51:00;;;;;;;23.75;11.73;;;;;;;3.45;53.67;101240.06;5099787;28;20098;-74
2024/01/31 09:53:25;;;;;;;22.98;12.73;;;;;;;3.87;53.63;101225.13;5101963;28;20046;-75
2024/01/31 09:55:55;;;;;;;23.67;11.98;;;;;;;3.81;50.59;101215.03;5098486;28;20557;-75
2024/01/31 09:58:21;;;;;;;;;;;;;;;4.01;50.23;101225.66;5109416;28;20051;-75
2024/01/31 10:00:47;;;;;;;18.65;10.65;;;;;;;4.28;50.70;101217.56;5103108;28;20360;-75
2024/01/31 10:03:12;;;;;;;17.80;10.82;;;;;;;4.50;49.35;101205.75;5101642;28;20491;-75
2024/01/31 10:05:38;;;;;;;19.02;10.73;;;;;;;4.37;49.23;101206.91;5104762;28;20028;-75
2024/01/31 10:08:04;;;;;;;18.60;11.48;;;;;;;4.60;49.21;101192.06;5101564;28;20016;-75
2024/01/31 10:10:30;;;;;;;19.55;11.07;;;;;;;4.67;47.81;101196.56;5099188;28;20438;-75
2024/01/31 10:12:56;;;;;;;107.57;20.17;;;;;;;4.85;49.09;101187.16;5101285;28;20392;-75
2024/01/31 10:15:21;;;;;;;19.05;11.18;;;;;;;4.85;49.09;101189.91;5101721;28;20390;-75
2024/01/31 10:17:47;;;;;;;15.93;9.43;;;;;;;4.68;48.22;101184.41;5101341;28;20027;-74
2024/01/31 10:20:16;;;;;;;16.70;11.07;;;;;;;4.82;48.18;101182.13;5105238;28;20027;-73
2024/01/31 10:22:44;;;;;;;18.23;10.20;;;;;;;4.98;48.49;101183.19;5098089;28;20024;-74
2024/01/31 10:25:15;;;;;;;19.25;10.60;;;;;;;5.26;48.62;101176.66;5107189;28;20424;-75
2024/01/31 10:27:40;;;;;;;19.92;11.02;;;;;;;5.40;47.78;101174.31;5104287;28;20023;-75
2024/01/31 10:30:08;;;;;;;17.08;10.07;;;;;;;5.39;49.31;101164.31;5104397;28;20027;-74
2024/01/31 10:32:38;;;;;;;19.05;11.25;;;;;;;5.60;48.20;101161.78;5104031;28;20115;-74
2024/01/31 10:35:05;;;;;;;23.35;11.10;;;;;;;5.45;47.33;101154.97;5119121;27;20042;-74
2024/01/31 10:37:31;;;;;;;16.40;10.60;;;;;;;5.33;46.81;101162.56;5105108;28;20031;-73
2024/01/31 10:39:59;;;;;;;30.25;12.07;;;;;;;5.41;48.10;101151.00;5097493;28;20030;-75
2024/01/31 10:42:26;;;;;;;15.95;9.50;;;;;;;5.69;46.28;101151.91;5099533;28;20031;-75
2024/01/31 10:44:55;;;;;;;20.13;10.82;;;;;;;5.70;45.43;101155.50;5091613;28;20513;-75
2024/01/31 10:47:21;;;;;;;15.75;9.15;;;;;;;5.26;44.28;101146.13;5097443;28;20519;-75
2024/01/31 10:49:46;;;;;;;17.55;9.90;;;;;;;5.10;46.54;101142.31;5098773;28;20111;-75
2024/01/31 10:52:14;;;;;;;19.10;11.32;;;;;;;5.62;47.19;101148.47;5099326;28;20032;-75
2024/01/31 10:54:46;;;;;;;15.90;9.55;;;;;;;5.53;44.88;101137.00;5088144;28;20024;-74
2024/01/31 10:57:13;;;;;;;14.65;9.35;;;;;;;5.89;45.11;101136.53;5098683;28;20484;-74
2024/01/31 10:59:39;;;;;;;13.85;8.95;;;;;;;5.91;46.34;101134.31;5098858;28;20074;-73
2024/01/31 11:02:17;;;;;;;22.35;10.18;;;;;;;6.14;45.30;101141.53;5096462;28;20145;-73
2024/01/31 11:04:43;;;;;;;14.77;9.77;;;;;;;6.22;44.80;101128.25;5102646;28;20024;-75
2024/01/31 11:07:21;;;;;;;15.73;9.32;;;;;;;6.31;44.01;101121.94;5106015;28;20020;-74